Terminal Aerodrome Forecast
Issued by NWS

Current Version | Previous Version | Graphics & Text | Print | Product List | Glossary On
Versions: 1 2 3 4 5 6 7 8 9 10 11 12 13 14 15 16 17 18 19 20 21 22 23 24 25 26 27 28 29
375
FTUS41 KPBZ 141125
TAFHLG
TAF
KHLG 141125Z 1412/1512 31012G25KT P6SM -SHSN OVC025
     FM141500 33010KT P6SM BKN025
     FM150300 28005KT P6SM SCT025=

USA.gov is the U.S. government's official web portal to all federal, state and local government web resources and services.